Yamato — JD2252 — position and weather

sailwx.info

Track history (hours):
 
Tides and Currents Weather Stations Pressure Air Temp Water Temp Dewpoint Dewpoint Depression Visibility Wind Speed Wind Dir Waves Ship Positions

Yamato

Last reported at 2014-Jul-23 23:12 UTC. Time now 2014-Jul-24 15:26 UTC.
Position N 35°27' E 139°39'.

Length 40 m; draft 3.6 m.

Type: Tug. MMSI: 431101141.

Date/timePositionNaut miles runAvg speedWind from/ knotsBaromVisibWave heightAir tempDewpointWater temp
2014-Jul-23 23:12N 35°27' E 139°39'4 5.9
2014-Jul-23 22:33N 35°29' E 139°43'3 3.0
2014-Jul-23 21:33N 35°27' E 139°45'4 4.3
2014-Jul-23 20:34N 35°27' E 139°40'0 0.3
2014-Jul-23 19:33N 35°27' E 139°39'0 0.0
2014-Jul-23 18:33N 35°27' E 139°39'0 0.0
2014-Jul-23 17:33N 35°27' E 139°39'0 0.0
2014-Jul-23 16:33N 35°27' E 139°39'0 0.0
2014-Jul-23 15:33N 35°27' E 139°39'0 0.0
2014-Jul-23 14:33N 35°27' E 139°39'1 1.5
2014-Jul-23 13:33N 35°26' E 139°41'1 1.1
2014-Jul-23 12:33N 35°27' E 139°42'0 0.1
2014-Jul-23 11:33N 35°27' E 139°42'2 2.0
2014-Jul-23 10:33N 35°27' E 139°39'0 0.1
2014-Jul-23 09:33N 35°27' E 139°39'4 3.9
2014-Jul-23 08:33N 35°27' E 139°44'4 3.7
2014-Jul-23 07:34N 35°27' E 139°40'0 0.3
2014-Jul-23 06:33N 35°27' E 139°40'1 0.7
2014-Jul-23 05:33N 35°27' E 139°40'1 0.7
2014-Jul-23 04:33N 35°27' E 139°40'0 0.0
2014-Jul-23 03:33N 35°27' E 139°40'0 0.0
2014-Jul-23 02:33N 35°27' E 139°40'0 0.0
2014-Jul-23 01:33N 35°27' E 139°40'0 0.0
2014-Jul-23 00:33N 35°27' E 139°40'4 4.4
2014-Jul-22 23:33N 35°29' E 139°44'1 0.9
2014-Jul-22 22:33N 35°28' E 139°45'2 2.5
2014-Jul-22 21:33N 35°27' E 139°42'2 0.2
2014-Jul-22 07:11N 35°27' E 139°40'0 0.0
2014-Jul-22 06:33N 35°27' E 139°40'0 0.0
2014-Jul-22 05:33N 35°27' E 139°40'0 0.2
2014-Jul-22 04:34N 35°27' E 139°40'7 6.6
2014-Jul-22 03:34N 35°31' E 139°47'6 6.4
2014-Jul-22 02:33N 35°27' E 139°40'0 0.3
2014-Jul-22 01:33N 35°27' E 139°40'0 0.0
2014-Jul-22 00:33N 35°27' E 139°40'0 0.0
2014-Jul-21 23:33N 35°27' E 139°40'2 2.2
2014-Jul-21 22:33N 35°28' E 139°42'2 1.9
2014-Jul-21 21:33N 35°27' E 139°43'3 2.8
2014-Jul-21 20:34N 35°27' E 139°40'0 0.0
2014-Jul-21 20:18N 35°27' E 139°40'1 0.1
2014-Jul-21 06:33N 35°28' E 139°40'0 0.4
2014-Jul-21 05:33N 35°28' E 139°41'0 0.0
2014-Jul-21 04:33N 35°28' E 139°41'0 0.0
2014-Jul-21 03:33N 35°28' E 139°41'0 0.0
2014-Jul-21 02:33N 35°28' E 139°41'0 0.0
2014-Jul-21 01:33N 35°28' E 139°41'1 1.1
2014-Jul-21 00:33N 35°26' E 139°41'1 1.3
2014-Jul-20 23:33N 35°27' E 139°40'0 0.3
2014-Jul-20 22:34N 35°27' E 139°39'2 1.9
2014-Jul-20 21:33N 35°27' E 139°42'2 1.8
2014-Jul-20 20:34N 35°27' E 139°40'0 0.0
2014-Jul-20 08:15N 35°27' E 139°40'0 0.0
2014-Jul-20 07:33N 35°27' E 139°40'2 1.7
2014-Jul-20 06:33N 35°28' E 139°41'5 4.8
2014-Jul-20 05:34N 35°31' E 139°46'3 3.2
2014-Jul-20 04:34N 35°28' E 139°44'3 2.8
2014-Jul-20 03:33N 35°28' E 139°41'0 0.0
2014-Jul-20 02:33N 35°28' E 139°41'0 0.0
2014-Jul-20 01:33N 35°28' E 139°41'0 0.0
2014-Jul-20 00:33N 35°28' E 139°41'0 0.0
2014-Jul-19 23:33N 35°28' E 139°41'1 0.7
2014-Jul-19 22:33N 35°27' E 139°41'1 1.3
2014-Jul-19 21:33N 35°27' E 139°40'0 0.0
2014-Jul-18 07:10N 35°27' E 139°40'0 0.0
2014-Jul-18 06:33N 35°27' E 139°40'0 0.0
2014-Jul-18 05:33N 35°27' E 139°40'0 0.0
2014-Jul-18 04:33N 35°27' E 139°40'0 0.0
2014-Jul-18 03:33N 35°27' E 139°40'0 0.0
2014-Jul-18 02:33N 35°27' E 139°40'0 0.0
2014-Jul-18 01:33N 35°27' E 139°40'4 4.0
2014-Jul-18 00:33N 35°30' E 139°43'3 3.3
2014-Jul-17 23:34N 35°26' E 139°44'4 3.7
2014-Jul-17 22:33N 35°27' E 139°40'3 0.3
2014-Jul-17 09:34N 35°24' E 139°42'1 1.4
2014-Jul-17 08:34N 35°24' E 139°40'0 0.1
2014-Jul-17 07:33N 35°24' E 139°40'3 3.4
2014-Jul-17 06:34N 35°27' E 139°41'1 0.6
2014-Jul-17 05:33N 35°27' E 139°40'0 0.3
2014-Jul-17 04:34N 35°27' E 139°40'0 0.0
2014-Jul-17 03:33N 35°27' E 139°40'0 0.0
2014-Jul-17 02:34N 35°27' E 139°40'0 0.0
2014-Jul-17 01:33N 35°27' E 139°40'0 0.0
2014-Jul-17 00:33N 35°27' E 139°40'0 0.0
2014-Jul-16 23:34N 35°27' E 139°40'0 0.0
2014-Jul-16 22:34N 35°27' E 139°40'0 0.0
2014-Jul-15 23:30N 35°27' E 139°40'2 1.8
2014-Jul-15 22:34N 35°25' E 139°41'1 0.9
2014-Jul-15 21:33N 35°25' E 139°42'3 2.8
2014-Jul-15 20:34N 35°28' E 139°42'0 0.4
2014-Jul-15 19:33N 35°28' E 139°42'0 0.0
2014-Jul-15 18:33N 35°28' E 139°42'0 0.0
2014-Jul-15 17:33N 35°28' E 139°42'4 4.0
2014-Jul-15 16:33N 35°30' E 139°46'4 4.1
2014-Jul-15 15:33N 35°26' E 139°44'3 3.1
2014-Jul-15 14:33N 35°24' E 139°41'3 2.5
2014-Jul-15 13:33N 35°27' E 139°41'1 0.9
2014-Jul-15 12:33N 35°27' E 139°42'0 0.0
2014-Jul-15 11:33N 35°27' E 139°42'1 0.7
2014-Jul-15 10:33N 35°26' E 139°42'2 1.8
2014-Jul-15 09:33N 35°27' E 139°40'0 0.2
2014-Jul-15 08:33N 35°27' E 139°40'0 0.0
2014-Jul-15 07:33N 35°27' E 139°40'0 0.0
2014-Jul-15 06:33N 35°27' E 139°40'0 0.0
2014-Jul-15 05:33N 35°27' E 139°40'1 0.8
2014-Jul-15 04:33N 35°27' E 139°41'4 3.8
2014-Jul-15 03:33N 35°24' E 139°38'0 0.1
2014-Jul-15 02:33N 35°24' E 139°38'1 1.5
2014-Jul-15 01:33N 35°24' E 139°40'2 1.6
2014-Jul-15 00:33N 35°24' E 139°38'2 1.7
2014-Jul-14 23:33N 35°23' E 139°40'4 4.5
2014-Jul-14 22:33N 35°28' E 139°41'3 2.6
2014-Jul-14 21:33N 35°26' E 139°44'4 3.6
2014-Jul-14 20:33N 35°27' E 139°40'0 0.0
2014-Jul-14 19:33N 35°27' E 139°40'0 0.0
2014-Jul-14 10:04N 35°27' E 139°40'1 2.4
2014-Jul-14 09:33N 35°27' E 139°41'8 8.2
2014-Jul-14 08:33N 35°29' E 139°51'8 8.4
2014-Jul-14 07:33N 35°30' E 140°01'0 0.0
2014-Jul-14 06:33N 35°30' E 140°01'1 1.4
2014-Jul-14 05:33N 35°31' E 140°00'6 6.1
2014-Jul-14 04:33N 35°36' E 140°05'2 1.7
2014-Jul-14 03:33N 35°35' E 140°03'0 0.0
2014-Jul-14 02:33N 35°35' E 140°03'5 5.2
2014-Jul-14 01:33N 35°33' E 139°57'8 8.1
2014-Jul-14 00:33N 35°28' E 139°49'4 4.2
2014-Jul-13 23:33N 35°29' E 139°44'  
Track history (hours):
 
Tides and Currents Weather Stations Pressure Air Temp Water Temp Dewpoint Dewpoint Depression Visibility Wind Speed Wind Dir Waves Ship Positions

Yamato

Last reported at 2014-Jul-23 23:12 UTC. Time now 2014-Jul-24 15:26 UTC.
Position N 35°27' E 139°39'.

Length 40 m; draft 3.6 m.

Type: Tug. MMSI: 431101141.

Date/timePositionNaut miles runAvg speedWind from/ knotsBaromVisibWave heightAir tempDewpointWater temp
2014-Jul-23 23:12N 35°27' E 139°39'4 5.9
2014-Jul-23 22:33N 35°29' E 139°43'3 3.0
2014-Jul-23 21:33N 35°27' E 139°45'4 4.3
2014-Jul-23 20:34N 35°27' E 139°40'0 0.3
2014-Jul-23 19:33N 35°27' E 139°39'0 0.0
2014-Jul-23 18:33N 35°27' E 139°39'0 0.0
2014-Jul-23 17:33N 35°27' E 139°39'0 0.0
2014-Jul-23 16:33N 35°27' E 139°39'0 0.0
2014-Jul-23 15:33N 35°27' E 139°39'0 0.0
2014-Jul-23 14:33N 35°27' E 139°39'1 1.5
2014-Jul-23 13:33N 35°26' E 139°41'1 1.1
2014-Jul-23 12:33N 35°27' E 139°42'0 0.1
2014-Jul-23 11:33N 35°27' E 139°42'2 2.0
2014-Jul-23 10:33N 35°27' E 139°39'0 0.1
2014-Jul-23 09:33N 35°27' E 139°39'4 3.9
2014-Jul-23 08:33N 35°27' E 139°44'4 3.7
2014-Jul-23 07:34N 35°27' E 139°40'0 0.3
2014-Jul-23 06:33N 35°27' E 139°40'1 0.7
2014-Jul-23 05:33N 35°27' E 139°40'1 0.7
2014-Jul-23 04:33N 35°27' E 139°40'0 0.0
2014-Jul-23 03:33N 35°27' E 139°40'0 0.0
2014-Jul-23 02:33N 35°27' E 139°40'0 0.0
2014-Jul-23 01:33N 35°27' E 139°40'0 0.0
2014-Jul-23 00:33N 35°27' E 139°40'4 4.4
2014-Jul-22 23:33N 35°29' E 139°44'1 0.9
2014-Jul-22 22:33N 35°28' E 139°45'2 2.5
2014-Jul-22 21:33N 35°27' E 139°42'2 0.2
2014-Jul-22 07:11N 35°27' E 139°40'0 0.0
2014-Jul-22 06:33N 35°27' E 139°40'0 0.0
2014-Jul-22 05:33N 35°27' E 139°40'0 0.2
2014-Jul-22 04:34N 35°27' E 139°40'7 6.6
2014-Jul-22 03:34N 35°31' E 139°47'6 6.4
2014-Jul-22 02:33N 35°27' E 139°40'0 0.3
2014-Jul-22 01:33N 35°27' E 139°40'0 0.0
2014-Jul-22 00:33N 35°27' E 139°40'0 0.0
2014-Jul-21 23:33N 35°27' E 139°40'2 2.2
2014-Jul-21 22:33N 35°28' E 139°42'2 1.9
2014-Jul-21 21:33N 35°27' E 139°43'3 2.8
2014-Jul-21 20:34N 35°27' E 139°40'0 0.0
2014-Jul-21 20:18N 35°27' E 139°40'1 0.1
2014-Jul-21 06:33N 35°28' E 139°40'0 0.4
2014-Jul-21 05:33N 35°28' E 139°41'0 0.0
2014-Jul-21 04:33N 35°28' E 139°41'0 0.0
2014-Jul-21 03:33N 35°28' E 139°41'0 0.0
2014-Jul-21 02:33N 35°28' E 139°41'0 0.0
2014-Jul-21 01:33N 35°28' E 139°41'1 1.1
2014-Jul-21 00:33N 35°26' E 139°41'1 1.3
2014-Jul-20 23:33N 35°27' E 139°40'0 0.3
2014-Jul-20 22:34N 35°27' E 139°39'2 1.9
2014-Jul-20 21:33N 35°27' E 139°42'2 1.8
2014-Jul-20 20:34N 35°27' E 139°40'0 0.0
2014-Jul-20 08:15N 35°27' E 139°40'0 0.0
2014-Jul-20 07:33N 35°27' E 139°40'2 1.7
2014-Jul-20 06:33N 35°28' E 139°41'5 4.8
2014-Jul-20 05:34N 35°31' E 139°46'3 3.2
2014-Jul-20 04:34N 35°28' E 139°44'3 2.8
2014-Jul-20 03:33N 35°28' E 139°41'0 0.0
2014-Jul-20 02:33N 35°28' E 139°41'0 0.0
2014-Jul-20 01:33N 35°28' E 139°41'0 0.0
2014-Jul-20 00:33N 35°28' E 139°41'0 0.0
2014-Jul-19 23:33N 35°28' E 139°41'1 0.7
2014-Jul-19 22:33N 35°27' E 139°41'1 1.3
2014-Jul-19 21:33N 35°27' E 139°40'0 0.0
2014-Jul-18 07:10N 35°27' E 139°40'0 0.0
2014-Jul-18 06:33N 35°27' E 139°40'0 0.0
2014-Jul-18 05:33N 35°27' E 139°40'0 0.0
2014-Jul-18 04:33N 35°27' E 139°40'0 0.0
2014-Jul-18 03:33N 35°27' E 139°40'0 0.0
2014-Jul-18 02:33N 35°27' E 139°40'0 0.0
2014-Jul-18 01:33N 35°27' E 139°40'4 4.0
2014-Jul-18 00:33N 35°30' E 139°43'3 3.3
2014-Jul-17 23:34N 35°26' E 139°44'4 3.7
2014-Jul-17 22:33N 35°27' E 139°40'3 0.3
2014-Jul-17 09:34N 35°24' E 139°42'1 1.4
2014-Jul-17 08:34N 35°24' E 139°40'0 0.1
2014-Jul-17 07:33N 35°24' E 139°40'3 3.4
2014-Jul-17 06:34N 35°27' E 139°41'1 0.6
2014-Jul-17 05:33N 35°27' E 139°40'0 0.3
2014-Jul-17 04:34N 35°27' E 139°40'0 0.0
2014-Jul-17 03:33N 35°27' E 139°40'0 0.0
2014-Jul-17 02:34N 35°27' E 139°40'0 0.0
2014-Jul-17 01:33N 35°27' E 139°40'0 0.0
2014-Jul-17 00:33N 35°27' E 139°40'0 0.0
2014-Jul-16 23:34N 35°27' E 139°40'0 0.0
2014-Jul-16 22:34N 35°27' E 139°40'0 0.0
2014-Jul-15 23:30N 35°27' E 139°40'2 1.8
2014-Jul-15 22:34N 35°25' E 139°41'1 0.9
2014-Jul-15 21:33N 35°25' E 139°42'3 2.8
2014-Jul-15 20:34N 35°28' E 139°42'0 0.4
2014-Jul-15 19:33N 35°28' E 139°42'0 0.0
2014-Jul-15 18:33N 35°28' E 139°42'0 0.0
2014-Jul-15 17:33N 35°28' E 139°42'4 4.0
2014-Jul-15 16:33N 35°30' E 139°46'4 4.1
2014-Jul-15 15:33N 35°26' E 139°44'3 3.1
2014-Jul-15 14:33N 35°24' E 139°41'3 2.5
2014-Jul-15 13:33N 35°27' E 139°41'1 0.9
2014-Jul-15 12:33N 35°27' E 139°42'0 0.0
2014-Jul-15 11:33N 35°27' E 139°42'1 0.7
2014-Jul-15 10:33N 35°26' E 139°42'2 1.8
2014-Jul-15 09:33N 35°27' E 139°40'0 0.2
2014-Jul-15 08:33N 35°27' E 139°40'0 0.0
2014-Jul-15 07:33N 35°27' E 139°40'0 0.0
2014-Jul-15 06:33N 35°27' E 139°40'0 0.0
2014-Jul-15 05:33N 35°27' E 139°40'1 0.8
2014-Jul-15 04:33N 35°27' E 139°41'4 3.8
2014-Jul-15 03:33N 35°24' E 139°38'0 0.1
2014-Jul-15 02:33N 35°24' E 139°38'1 1.5
2014-Jul-15 01:33N 35°24' E 139°40'2 1.6
2014-Jul-15 00:33N 35°24' E 139°38'2 1.7
2014-Jul-14 23:33N 35°23' E 139°40'4 4.5
2014-Jul-14 22:33N 35°28' E 139°41'3 2.6
2014-Jul-14 21:33N 35°26' E 139°44'4 3.6
2014-Jul-14 20:33N 35°27' E 139°40'0 0.0
2014-Jul-14 19:33N 35°27' E 139°40'0 0.0
2014-Jul-14 10:04N 35°27' E 139°40'1 2.4
2014-Jul-14 09:33N 35°27' E 139°41'8 8.2
2014-Jul-14 08:33N 35°29' E 139°51'8 8.4
2014-Jul-14 07:33N 35°30' E 140°01'0 0.0
2014-Jul-14 06:33N 35°30' E 140°01'1 1.4
2014-Jul-14 05:33N 35°31' E 140°00'6 6.1
2014-Jul-14 04:33N 35°36' E 140°05'2 1.7
2014-Jul-14 03:33N 35°35' E 140°03'0 0.0
2014-Jul-14 02:33N 35°35' E 140°03'5 5.2
2014-Jul-14 01:33N 35°33' E 139°57'8 8.1
2014-Jul-14 00:33N 35°28' E 139°49'4 4.2
2014-Jul-13 23:33N 35°29' E 139°44'  

Dump ship's entire track history